Time;durP1;ratioP1;P1;durP2;ratioP2;P2;SDS_P1;SDS_P2;PMS_P1;PMS_P2;Temp;Humidity;BMP_temperature;BMP_pressure;BME280_temperature;BME280_humidity;BME280_pressure;Samples;Min_cycle;Max_cycle;Signal;HPM_P1;HPM_P2
2022/09/25 00:00:23;;;;;;;4.57;1.73;;;;;;;;;;5072978;28;20051;-59
2022/09/25 00:02:49;;;;;;;4.13;1.90;;;;;;;;;;5072047;28;20706;-62
2022/09/25 00:05:14;;;;;;;2.78;1.70;;;;;;;;;;5072452;28;20281;-59
2022/09/25 00:07:39;;;;;;;2.83;1.87;;;;;;;;;;5071178;28;20036;-62
2022/09/25 00:10:05;;;;;;;3.50;1.70;;;;;;;;;;5072889;28;20024;-65
2022/09/25 00:12:30;;;;;;;2.75;1.80;;;;;;;;;;5071603;28;20051;-58
2022/09/25 00:14:56;;;;;;;4.30;2.00;;;;;;;;;;5072304;28;20028;-59
2022/09/25 00:17:21;;;;;;;2.97;1.58;;;;;;;;;;5071356;28;20771;-60
2022/09/25 00:19:49;;;;;;;2.57;1.70;;;;;;;;;;5072678;28;20150;-62
2022/09/25 00:22:15;;;;;;;3.15;1.70;;;;;;;;;;5072361;28;20049;-63
2022/09/25 00:24:41;;;;;;;3.58;1.70;;;;;;;;;;5072686;28;20464;-63
2022/09/25 00:27:07;;;;;;;2.27;1.47;;;;;;;;;;5070951;28;20070;-63
2022/09/25 00:29:32;;;;;;;3.03;1.80;;;;;;;;;;5076323;28;20407;-63
2022/09/25 00:31:58;;;;;;;2.67;1.75;;;;;;;;;;5075645;28;20692;-63
2022/09/25 00:34:23;;;;;;;3.10;1.70;;;;;;;;;;5057238;28;20389;-62
2022/09/25 00:36:48;;;;;;;3.37;1.70;;;;;;;;;;5074972;28;20027;-63
2022/09/25 00:39:13;;;;;;;5.18;1.60;;;;;;;;;;5076647;28;20293;-62
2022/09/25 00:41:39;;;;;;;2.03;1.70;;;;;;;;;;5075669;28;20054;-62
2022/09/25 00:44:24;;;;;;;1.87;1.60;;;;;;;;;;5075246;28;20399;-62
2022/09/25 00:46:49;;;;;;;2.42;1.52;;;;;;;;;;5075434;28;20458;-62
2022/09/25 00:49:15;;;;;;;2.90;1.50;;;;;;;;;;5075144;28;20024;-63
2022/09/25 00:51:56;;;;;;;3.08;1.52;;;;;;;;;;5074084;28;20284;-62
2022/09/25 00:54:23;;;;;;;2.38;1.50;;;;;;;;;;5076034;28;20427;-63
2022/09/25 00:56:50;;;;;;;2.22;1.50;;;;;;;;;;5074684;28;20523;-60
2022/09/25 00:59:30;;;;;;;2.33;1.55;;;;;;;;;;5057616;28;20027;-60
2022/09/25 01:01:55;;;;;;;2.22;1.50;;;;;;;;;;5075193;28;20032;-58
2022/09/25 01:04:21;;;;;;;3.58;1.50;;;;;;;;;;5078624;28;20053;-63
2022/09/25 01:06:48;;;;;;;1.95;1.55;;;;;;;;;;5075322;28;20675;-63
2022/09/25 01:09:13;;;;;;;2.22;1.50;;;;;;;;;;5074518;28;20035;-60
2022/09/25 01:11:39;;;;;;;3.55;1.70;;;;;;;;;;5074600;28;20059;-63
2022/09/25 01:14:05;;;;;;;2.97;1.50;;;;;;;;;;5074782;28;20643;-62
2022/09/25 01:16:36;;;;;;;2.65;1.50;;;;;;;;;;5075019;28;20496;-59
2022/09/25 01:19:20;;;;;;;1.57;1.40;;;;;;;;;;5074549;28;20028;-59
2022/09/25 01:21:45;;;;;;;2.75;1.50;;;;;;;;;;5075336;28;20034;-61
2022/09/25 01:24:29;;;;;;;3.27;1.70;;;;;;;;;;5074902;28;20023;-62
2022/09/25 01:26:54;;;;;;;2.63;1.50;;;;;;;;;;5074646;28;20035;-63
2022/09/25 01:29:19;;;;;;;2.60;1.47;;;;;;;;;;5075580;28;20056;-59
2022/09/25 01:32:05;;;;;;;2.40;1.63;;;;;;;;;;5074536;28;20514;-62
2022/09/25 01:34:37;;;;;;;2.45;1.50;;;;;;;;;;5074710;28;20020;-62
2022/09/25 01:37:02;;;;;;;;;;;;;;;;;;5074814;28;20119;-63
2022/09/25 01:39:31;;;;;;;2.78;1.45;;;;;;;;;;5074421;28;19916;-59
2022/09/25 01:42:04;;;;;;;1.73;1.40;;;;;;;;;;5074865;28;20023;-63
2022/09/25 01:44:32;;;;;;;2.35;1.30;;;;;;;;;;5074132;28;20023;-59
2022/09/25 01:47:13;;;;;;;3.22;1.58;;;;;;;;;;5073092;28;20142;-62
2022/09/25 01:49:43;;;;;;;2.58;1.60;;;;;;;;;;5074381;28;20023;-59
2022/09/25 01:52:21;;;;;;;2.78;1.70;;;;;;;;;;5074779;28;20241;-58
2022/09/25 01:54:50;;;;;;;2.45;1.38;;;;;;;;;;5074390;28;20027;-59
2022/09/25 01:57:22;;;;;;;1.63;1.40;;;;;;;;;;5070263;28;20035;-58
2022/09/25 01:59:50;;;;;;;2.78;1.45;;;;;;;;;;5074682;28;20314;-58
2022/09/25 02:02:18;;;;;;;2.42;1.65;;;;;;;;;;5073254;28;20404;-64
2022/09/25 02:04:50;;;;;;;2.15;1.40;;;;;;;;;;5075820;28;20058;-63
2022/09/25 02:07:19;;;;;;;9.13;2.20;;;;;;;;;;5068471;28;20031;-54
2022/09/25 02:09:48;;;;;;;6.68;1.85;;;;;;;;;;5062893;28;20429;-58
2022/09/25 02:12:16;;;;;;;6.38;1.70;;;;;;;;;;5067674;28;20055;-56
2022/09/25 02:14:52;;;;;;;3.30;1.60;;;;;;;;;;5069366;28;20398;-54
2022/09/25 02:20:30;;;;;;;2.42;1.67;;;;;;;;;;5069384;28;20036;-55
2022/09/25 02:22:51;;;;;;;5.00;1.75;;;;;;;;;;5068940;28;20783;-55
2022/09/25 02:25:24;;;;;;;4.75;1.80;;;;;;;;;;5069300;28;21086;-54
2022/09/25 02:27:49;;;;;;;3.33;1.63;;;;;;;;;;5067418;28;20103;-55
2022/09/25 02:30:16;;;;;;;1.92;1.60;;;;;;;;;;5067624;28;21151;-52
2022/09/25 02:32:41;;;;;;;2.47;1.73;;;;;;;;;;5068045;28;21103;-55
2022/09/25 02:35:06;;;;;;;3.43;1.80;;;;;;;;;;5068677;28;20028;-57
2022/09/25 02:37:31;;;;;;;4.05;1.50;;;;;;;;;;5067060;28;20027;-56
2022/09/25 02:40:00;;;;;;;3.63;1.50;;;;;;;;;;5067218;28;20039;-57
2022/09/25 02:42:54;;;;;;;2.90;1.70;;;;;;;;;;5067985;28;20434;-58
2022/09/25 02:45:32;;;;;;;3.30;1.70;;;;;;;;;;5049440;28;20055;-56
2022/09/25 02:48:00;;;;;;;3.45;1.65;;;;;;;;;;5049726;28;20019;-58
2022/09/25 02:50:26;;;;;;;1.70;1.45;;;;;;;;;;5049958;28;20061;-58
2022/09/25 02:52:55;;;;;;;2.23;1.50;;;;;;;;;;5065728;28;20081;-54
2022/09/25 02:55:27;;;;;;;2.35;1.40;;;;;;;;;;5063464;28;20050;-53
2022/09/25 02:58:00;;;;;;;6.38;1.33;;;;;;;;;;5070685;28;20020;-56
2022/09/25 03:00:25;;;;;;;3.67;1.65;;;;;;;;;;5069173;28;21282;-59
2022/09/25 03:02:52;;;;;;;5.57;1.70;;;;;;;;;;5069946;27;20679;-58
2022/09/25 03:05:19;;;;;;;1.90;1.25;;;;;;;;;;5070789;28;20023;-48
2022/09/25 03:10:30;;;;;;;1.75;1.42;;;;;;;;;;5055790;28;20537;-48
2022/09/25 03:12:55;;;;;;;2.50;1.67;;;;;;;;;;5071526;28;20419;-59
2022/09/25 03:15:22;;;;;;;3.67;1.60;;;;;;;;;;5072348;28;20024;-49
2022/09/25 03:17:49;;;;;;;1.85;1.40;;;;;;;;;;5071646;28;20043;-59
2022/09/25 03:20:15;;;;;;;2.80;1.52;;;;;;;;;;5072481;28;20122;-59
2022/09/25 03:22:40;;;;;;;2.10;1.30;;;;;;;;;;5072203;28;20026;-59
2022/09/25 03:25:05;;;;;;;1.90;1.50;;;;;;;;;;5072988;28;20482;-48
2022/09/25 03:27:31;;;;;;;1.48;1.38;;;;;;;;;;5071631;28;20531;-51
2022/09/25 03:29:56;;;;;;;1.80;1.40;;;;;;;;;;5071870;28;20023;-51
2022/09/25 03:32:21;;;;;;;1.40;1.30;;;;;;;;;;5072165;28;20058;-59
2022/09/25 03:34:46;;;;;;;2.27;1.50;;;;;;;;;;5072834;28;20069;-59
2022/09/25 03:37:12;;;;;;;1.77;1.27;;;;;;;;;;5059842;28;20043;-59
2022/09/25 03:39:37;;;;;;;2.60;1.50;;;;;;;;;;5073201;28;20035;-48
2022/09/25 03:42:03;;;;;;;2.40;1.40;;;;;;;;;;5071882;28;20047;-48
2022/09/25 03:44:29;;;;;;;2.00;1.50;;;;;;;;;;5072354;28;20028;-48
2022/09/25 03:46:54;;;;;;;3.55;1.48;;;;;;;;;;5072200;28;20042;-59
2022/09/25 03:49:19;;;;;;;2.33;1.50;;;;;;;;;;5054090;28;20027;-49
2022/09/25 03:51:44;;;;;;;3.70;1.40;;;;;;;;;;5062863;28;20143;-59
2022/09/25 03:54:09;;;;;;;2.73;1.40;;;;;;;;;;5073816;28;20386;-59
2022/09/25 03:56:35;;;;;;;1.85;1.45;;;;;;;;;;5070865;28;20780;-51
2022/09/25 03:59:00;;;;;;;1.65;1.25;;;;;;;;;;5072310;28;20166;-59
2022/09/25 04:01:26;;;;;;;2.80;1.50;;;;;;;;;;5071277;28;20535;-49
2022/09/25 04:03:51;;;;;;;2.28;1.30;;;;;;;;;;5077177;28;22081;-47
2022/09/25 04:06:18;;;;;;;2.15;1.35;;;;;;;;;;5075413;28;20044;-49
2022/09/25 04:08:44;;;;;;;1.60;1.25;;;;;;;;;;5077336;28;20526;-59
2022/09/25 04:11:10;;;;;;;2.42;1.50;;;;;;;;;;5077366;28;20028;-60
2022/09/25 04:13:36;;;;;;;2.17;1.38;;;;;;;;;;5076971;28;20391;-60
2022/09/25 04:16:02;;;;;;;2.70;1.42;;;;;;;;;;5075322;28;20028;-49
2022/09/25 04:18:30;;;;;;;1.75;1.40;;;;;;;;;;5075916;28;20027;-48
2022/09/25 04:21:05;;;;;;;1.60;1.35;;;;;;;;;;5074936;28;21480;-49
2022/09/25 04:23:31;;;;;;;2.28;1.23;;;;;;;;;;5076067;28;20028;-48
2022/09/25 04:25:56;;;;;;;2.25;1.30;;;;;;;;;;5075926;28;20054;-59
2022/09/25 04:28:22;;;;;;;2.10;1.30;;;;;;;;;;5077762;28;20016;-59
2022/09/25 04:30:47;;;;;;;1.33;1.02;;;;;;;;;;5077130;28;20088;-50
2022/09/25 04:35:56;;;;;;;1.65;1.20;;;;;;;;;;5076778;28;20033;-59
2022/09/25 04:38:22;;;;;;;1.73;1.30;;;;;;;;;;5075744;28;20032;-59
2022/09/25 04:40:47;;;;;;;1.65;1.30;;;;;;;;;;5077089;28;20023;-49
2022/09/25 04:43:12;;;;;;;2.40;1.23;;;;;;;;;;5074696;28;20514;-53
2022/09/25 04:45:38;;;;;;;2.47;1.13;;;;;;;;;;5074924;28;20311;-48
2022/09/25 04:48:03;;;;;;;2.83;1.30;;;;;;;;;;5074834;28;20035;-60
2022/09/25 04:50:29;;;;;;;1.88;1.25;;;;;;;;;;5076444;28;20309;-60
2022/09/25 04:52:55;;;;;;;2.30;1.25;;;;;;;;;;5057938;28;20280;-57
2022/09/25 04:55:23;;;;;;;2.17;1.20;;;;;;;;;;5064424;28;20016;-48
2022/09/25 04:57:52;;;;;;;1.58;1.00;;;;;;;;;;5073642;28;20520;-59
2022/09/25 05:00:18;;;;;;;2.67;1.30;;;;;;;;;;5075613;28;20061;-49
2022/09/25 05:02:43;;;;;;;2.78;1.35;;;;;;;;;;5074817;28;20028;-50
2022/09/25 05:05:09;;;;;;;1.83;1.23;;;;;;;;;;5074641;28;20035;-48
2022/09/25 05:07:34;;;;;;;1.70;1.05;;;;;;;;;;5075084;28;20065;-60
2022/09/25 05:09:59;;;;;;;2.17;1.30;;;;;;;;;;5076630;28;20029;-62
2022/09/25 05:12:25;;;;;;;1.33;1.00;;;;;;;;;;5074943;28;20024;-60
2022/09/25 05:14:50;;;;;;;1.60;1.17;;;;;;;;;;5073487;28;20027;-60
2022/09/25 05:17:15;;;;;;;1.17;0.90;;;;;;;;;;5074832;28;20282;-60
2022/09/25 05:19:40;;;;;;;1.90;1.10;;;;;;;;;;5075088;28;20035;-59
2022/09/25 05:22:05;;;;;;;2.03;1.00;;;;;;;;;;5076056;28;20289;-59
2022/09/25 05:24:31;;;;;;;2.43;1.07;;;;;;;;;;5075074;28;20122;-60
2022/09/25 05:26:56;;;;;;;1.50;1.00;;;;;;;;;;5056270;28;20400;-48
2022/09/25 05:29:21;;;;;;;1.45;1.00;;;;;;;;;;5074541;28;20407;-48
2022/09/25 05:31:48;;;;;;;2.25;1.10;;;;;;;;;;5073928;28;20023;-59
2022/09/25 05:34:14;;;;;;;1.58;1.08;;;;;;;;;;5056734;28;20088;-60
2022/09/25 05:36:39;;;;;;;2.63;1.33;;;;;;;;;;5072092;27;20028;-50
2022/09/25 05:39:04;;;;;;;2.10;1.07;;;;;;;;;;5073909;28;20476;-60
2022/09/25 05:41:30;;;;;;;1.60;1.20;;;;;;;;;;5073612;28;20753;-60
2022/09/25 05:43:56;;;;;;;2.30;1.05;;;;;;;;;;5074874;28;20840;-50
2022/09/25 05:46:22;;;;;;;1.33;1.08;;;;;;;;;;5055704;28;20044;-59
2022/09/25 05:48:47;;;;;;;1.53;1.07;;;;;;;;;;5074241;28;20035;-60
2022/09/25 05:51:12;;;;;;;1.50;1.00;;;;;;;;;;5073819;28;20358;-59
2022/09/25 05:53:37;;;;;;;1.42;0.90;;;;;;;;;;5074998;28;20032;-60
2022/09/25 05:56:04;;;;;;;2.25;1.00;;;;;;;;;;5055196;28;20543;-59
2022/09/25 05:58:30;;;;;;;1.42;1.10;;;;;;;;;;5074530;28;20035;-59
2022/09/25 06:00:58;;;;;;;2.38;1.08;;;;;;;;;;5072726;28;20024;-49
2022/09/25 06:03:23;;;;;;;3.20;0.90;;;;;;;;;;5066401;28;20046;-59
2022/09/25 06:05:48;;;;;;;1.17;1.07;;;;;;;;;;5076205;28;22522;-53
2022/09/25 06:08:14;;;;;;;1.63;1.00;;;;;;;;;;5073467;28;20281;-50
2022/09/25 06:10:39;;;;;;;1.20;0.90;;;;;;;;;;5073739;28;20116;-61
2022/09/25 06:13:05;;;;;;;2.28;0.85;;;;;;;;;;5073778;28;20124;-49
2022/09/25 06:15:37;;;;;;;1.60;0.90;;;;;;;;;;5073631;28;20123;-49
2022/09/25 06:18:06;;;;;;;1.05;0.90;;;;;;;;;;5073934;28;20090;-59
2022/09/25 06:20:31;;;;;;;0.95;0.70;;;;;;;;;;5080683;28;20131;-48
2022/09/25 06:22:57;;;;;;;2.65;1.13;;;;;;;;;;5073622;28;20019;-49
2022/09/25 06:25:24;;;;;;;1.42;0.98;;;;;;;;;;5071955;28;20573;-51
2022/09/25 06:27:56;;;;;;;1.83;0.90;;;;;;;;;;5074479;28;20028;-49
2022/09/25 06:30:22;;;;;;;1.27;0.90;;;;;;;;;;5080735;28;20031;-60
2022/09/25 06:32:49;;;;;;;1.17;1.08;;;;;;;;;;5074261;28;21175;-50
2022/09/25 06:35:15;;;;;;;1.20;1.00;;;;;;;;;;5074607;28;20154;-59
2022/09/25 06:37:40;;;;;;;2.60;1.08;;;;;;;;;;5073876;28;20034;-50
2022/09/25 06:40:06;;;;;;;2.20;1.03;;;;;;;;;;5072838;28;20475;-49
2022/09/25 06:42:34;;;;;;;0.80;0.80;;;;;;;;;;5073626;28;20539;-50
2022/09/25 06:44:59;;;;;;;1.65;0.80;;;;;;;;;;5071441;28;20031;-49
2022/09/25 06:47:24;;;;;;;1.40;0.73;;;;;;;;;;5073138;28;20044;-48
2022/09/25 06:49:49;;;;;;;2.27;1.00;;;;;;;;;;5054798;28;20841;-59
2022/09/25 06:52:14;;;;;;;2.00;0.87;;;;;;;;;;5075204;28;20534;-60
2022/09/25 06:54:40;;;;;;;1.43;1.00;;;;;;;;;;5071713;28;20077;-60
2022/09/25 06:57:08;;;;;;;1.58;1.00;;;;;;;;;;5074296;28;20284;-58
2022/09/25 06:59:33;;;;;;;1.27;0.98;;;;;;;;;;5074163;28;20063;-58
2022/09/25 07:03:43;;;;;;;1.53;0.80;;;;;;;;;;5077347;28;20154;-61
2022/09/25 07:04:43;;;;;;;1.13;1.00;;;;;;;;;;5079162;28;20043;-61
2022/09/25 07:07:08;;;;;;;1.63;0.90;;;;;;;;;;5072625;28;20836;-50
2022/09/25 07:09:33;;;;;;;1.30;0.93;;;;;;;;;;5071421;28;20032;-47
2022/09/25 07:11:59;;;;;;;1.23;1.03;;;;;;;;;;5071801;28;20298;-50
2022/09/25 07:14:24;;;;;;;0.93;0.80;;;;;;;;;;5072841;28;20032;-48
2022/09/25 07:16:49;;;;;;;2.65;1.15;;;;;;;;;;5072268;28;20292;-58
2022/09/25 07:19:15;;;;;;;2.50;0.97;;;;;;;;;;5072072;28;20024;-58
2022/09/25 07:21:40;;;;;;;2.13;0.80;;;;;;;;;;5073569;28;20035;-58
2022/09/25 07:24:05;;;;;;;1.13;0.95;;;;;;;;;;5073625;28;20298;-48
2022/09/25 07:26:33;;;;;;;1.60;1.03;;;;;;;;;;5072058;28;20562;-50
2022/09/25 07:29:03;;;;;;;1.45;1.00;;;;;;;;;;5070791;28;20036;-52
2022/09/25 07:31:30;;;;;;;2.22;1.05;;;;;;;;;;5051708;28;20441;-59
2022/09/25 07:33:56;;;;;;;1.58;1.10;;;;;;;;;;5071673;28;20044;-48
2022/09/25 07:36:21;;;;;;;1.08;0.88;;;;;;;;;;5073684;28;20122;-59
2022/09/25 07:38:50;;;;;;;2.70;0.95;;;;;;;;;;5072248;28;20630;-48
2022/09/25 07:41:17;;;;;;;2.45;0.90;;;;;;;;;;5072757;28;20070;-59
2022/09/25 07:43:42;;;;;;;1.20;0.77;;;;;;;;;;5071565;28;20612;-59
2022/09/25 07:46:07;;;;;;;2.50;1.10;;;;;;;;;;5071160;28;20040;-60
2022/09/25 07:48:34;;;;;;;2.50;1.25;;;;;;;;;;5072100;28;20127;-60
2022/09/25 07:51:03;;;;;;;2.88;1.05;;;;;;;;;;5071955;28;21030;-59
2022/09/25 07:53:28;;;;;;;2.67;0.95;;;;;;;;;;5072378;28;20088;-59
2022/09/25 07:56:00;;;;;;;2.07;1.10;;;;;;;;;;5072023;28;20028;-49
2022/09/25 07:58:26;;;;;;;4.32;1.00;;;;;;;;;;5073257;28;20482;-58
2022/09/25 08:00:53;;;;;;;2.50;1.20;;;;;;;;;;5073413;28;20030;-59
2022/09/25 08:03:18;;;;;;;2.78;1.20;;;;;;;;;;5072901;28;20031;-58
2022/09/25 08:05:43;;;;;;;3.23;1.30;;;;;;;;;;5072861;28;20089;-47
2022/09/25 08:08:08;;;;;;;3.20;1.30;;;;;;;;;;5072368;28;20209;-48
2022/09/25 08:10:34;;;;;;;2.67;1.08;;;;;;;;;;5070744;28;20028;-51
2022/09/25 08:12:59;;;;;;;2.10;0.90;;;;;;;;;;5072076;28;20427;-47
2022/09/25 08:15:24;;;;;;;2.08;1.15;;;;;;;;;;5071678;28;20527;-59
2022/09/25 08:17:50;;;;;;;2.50;1.00;;;;;;;;;;5072216;28;20078;-60
2022/09/25 08:20:15;;;;;;;2.72;1.27;;;;;;;;;;5073043;28;20077;-59
2022/09/25 08:22:40;;;;;;;2.22;1.08;;;;;;;;;;5072461;28;20039;-59
2022/09/25 08:25:05;;;;;;;2.93;1.20;;;;;;;;;;5072184;28;20117;-60
2022/09/25 08:27:31;;;;;;;3.63;1.20;;;;;;;;;;5071766;28;20180;-60
2022/09/25 08:29:56;;;;;;;2.63;1.20;;;;;;;;;;5055419;28;20166;-59
2022/09/25 08:32:21;;;;;;;3.60;1.27;;;;;;;;;;5052390;28;20725;-59
2022/09/25 08:34:47;;;;;;;4.20;1.10;;;;;;;;;;5069166;28;20035;-59
2022/09/25 08:37:14;;;;;;;3.97;1.25;;;;;;;;;;5051343;28;20062;-59
2022/09/25 08:39:39;;;;;;;2.38;1.05;;;;;;;;;;5072168;28;20024;-48
2022/09/25 08:42:05;;;;;;;3.17;1.02;;;;;;;;;;5072010;28;20024;-48
2022/09/25 08:44:38;;;;;;;2.55;1.30;;;;;;;;;;5071527;28;20080;-48
2022/09/25 08:49:59;;;;;;;2.05;1.10;;;;;;;;;;5075717;28;20351;-48
2022/09/25 08:52:24;;;;;;;2.25;1.10;;;;;;;;;;5075938;28;20024;-50
2022/09/25 08:54:50;;;;;;;1.63;1.00;;;;;;;;;;5057322;28;20024;-50
2022/09/25 08:57:27;;;;;;;2.75;1.40;;;;;;;;;;5073830;28;20496;-51
2022/09/25 08:59:54;;;;;;;2.70;1.30;;;;;;;;;;5055026;28;20027;-49
2022/09/25 09:02:27;;;;;;;4.82;1.38;;;;;;;;;;5075059;28;20817;-59
2022/09/25 09:04:54;;;;;;;4.07;1.30;;;;;;;;;;5075902;28;20054;-61
2022/09/25 09:07:33;;;;;;;2.78;1.17;;;;;;;;;;5075328;28;20473;-60
2022/09/25 09:10:04;;;;;;;3.72;1.30;;;;;;;;;;5075118;28;20034;-61
2022/09/25 09:12:33;;;;;;;18.17;4.78;;;;;;;;;;5075181;28;20483;-60
2022/09/25 09:15:05;;;;;;;30.05;6.55;;;;;;;;;;5075908;28;20024;-59
2022/09/25 09:17:35;;;;;;;35.25;8.48;;;;;;;;;;5074531;28;20057;-59
2022/09/25 09:20:10;;;;;;;31.77;8.30;;;;;;;;;;5075598;28;20031;-59
2022/09/25 09:22:38;;;;;;;28.33;7.13;;;;;;;;;;5074981;28;20100;-60
2022/09/25 09:25:39;;;;;;;37.40;8.93;;;;;;;;;;5075908;28;20112;-58
2022/09/25 09:28:19;;;;;;;40.70;9.20;;;;;;;;;;5034315;28;20039;-60
2022/09/25 09:30:54;;;;;;;36.15;8.50;;;;;;;;;;5068742;28;20460;-59
2022/09/25 09:33:33;;;;;;;38.95;9.63;;;;;;;;;;5073642;28;20542;-59
2022/09/25 09:36:09;;;;;;;32.35;9.30;;;;;;;;;;5072925;28;20038;-59
2022/09/25 09:38:40;;;;;;;39.65;9.93;;;;;;;;;;5072808;28;20026;-59
2022/09/25 09:41:25;;;;;;;38.78;9.90;;;;;;;;;;5073858;28;20091;-60
2022/09/25 09:43:54;;;;;;;41.70;9.90;;;;;;;;;;5072906;28;20028;-59
2022/09/25 09:46:26;;;;;;;35.95;9.10;;;;;;;;;;5073385;28;21310;-59
2022/09/25 09:49:10;;;;;;;36.10;9.40;;;;;;;;;;5072818;28;20046;-60
2022/09/25 09:52:08;;;;;;;37.15;9.63;;;;;;;;;;5073877;28;20049;-59
2022/09/25 09:54:37;;;;;;;32.65;9.07;;;;;;;;;;5029066;28;20170;-60
2022/09/25 09:57:10;;;;;;;30.65;8.20;;;;;;;;;;5072695;28;20514;-58
2022/09/25 09:59:44;;;;;;;25.42;7.70;;;;;;;;;;5073336;28;20028;-59
2022/09/25 10:02:17;;;;;;;24.20;7.18;;;;;;;;;;5073858;28;20819;-59
2022/09/25 10:04:43;;;;;;;27.27;7.35;;;;;;;;;;5073734;28;20063;-60
2022/09/25 10:07:12;;;;;;;20.20;6.65;;;;;;;;;;5074008;28;20032;-60
2022/09/25 10:09:38;;;;;;;22.98;6.38;;;;;;;;;;5073200;28;20024;-60
2022/09/25 10:12:09;;;;;;;21.00;6.60;;;;;;;;;;5074206;28;20027;-59
2022/09/25 10:14:39;;;;;;;20.65;5.65;;;;;;;;;;5072857;28;20313;-59
2022/09/25 10:17:06;;;;;;;20.27;5.47;;;;;;;;;;5073463;28;20647;-57
2022/09/25 10:19:35;;;;;;;19.52;5.43;;;;;;;;;;5073328;28;20289;-58
2022/09/25 10:22:12;;;;;;;21.65;5.60;;;;;;;;;;5074026;28;20052;-58
2022/09/25 10:24:51;;;;;;;19.25;5.75;;;;;;;;;;5074424;28;20099;-58
2022/09/25 10:27:19;;;;;;;15.00;4.85;;;;;;;;;;5075232;28;20028;-58
2022/09/25 10:29:44;;;;;;;14.68;4.80;;;;;;;;;;5056199;28;20020;-59
2022/09/25 10:32:10;;;;;;;13.70;4.67;;;;;;;;;;5052763;28;20035;-59
2022/09/25 10:34:35;;;;;;;15.95;4.43;;;;;;;;;;5073692;28;20142;-58
2022/09/25 10:37:11;;;;;;;11.57;3.90;;;;;;;;;;5073533;28;20130;-58
2022/09/25 10:39:40;;;;;;;10.25;4.10;;;;;;;;;;5075042;28;20035;-59
2022/09/25 10:42:25;;;;;;;11.23;3.92;;;;;;;;;;5073596;28;20027;-59
2022/09/25 10:44:51;;;;;;;11.60;3.80;;;;;;;;;;5072745;28;20031;-59
2022/09/25 10:50:21;;;;;;;10.18;3.70;;;;;;;;;;5072818;28;20913;-59
2022/09/25 10:52:57;;;;;;;9.25;3.03;;;;;;;;;;5072189;28;20032;-59
2022/09/25 10:55:29;;;;;;;9.43;3.22;;;;;;;;;;5073307;28;20050;-59
2022/09/25 10:58:09;;;;;;;9.10;3.10;;;;;;;;;;5057293;28;20522;-57
2022/09/25 11:00:55;;;;;;;9.55;2.92;;;;;;;;;;5075920;28;20038;-58
2022/09/25 11:03:30;;;;;;;9.63;3.22;;;;;;;;;;5072703;28;20513;-58
2022/09/25 11:05:58;;;;;;;7.32;2.70;;;;;;;;;;5075804;28;20519;-59
2022/09/25 11:08:25;;;;;;;5.82;2.53;;;;;;;;;;5072189;28;20424;-58
2022/09/25 11:10:55;;;;;;;7.97;2.75;;;;;;;;;;5073836;28;20601;-59
2022/09/25 11:13:26;;;;;;;6.50;2.60;;;;;;;;;;5073530;28;20073;-59
2022/09/25 11:15:55;;;;;;;7.05;2.45;;;;;;;;;;5072378;28;20418;-58
2022/09/25 11:18:35;;;;;;;6.35;2.25;;;;;;;;;;5073897;28;20020;-58
2022/09/25 11:21:01;;;;;;;6.13;2.42;;;;;;;;;;5073074;27;20464;-58
2022/09/25 11:23:33;;;;;;;6.28;2.40;;;;;;;;;;5074591;28;20274;-58
2022/09/25 11:26:04;;;;;;;5.10;2.30;;;;;;;;;;5074285;28;20379;-58
2022/09/25 11:28:43;;;;;;;5.38;2.22;;;;;;;;;;5074219;28;20415;-58
2022/09/25 11:31:20;;;;;;;7.78;2.40;;;;;;;;;;5074624;28;20453;-57
2022/09/25 11:33:54;;;;;;;5.20;2.28;;;;;;;;;;5072642;28;20027;-46
2022/09/25 11:36:35;;;;;;;5.47;2.08;;;;;;;;;;5074042;28;20031;-47
2022/09/25 11:41:57;;;;;;;4.63;1.85;;;;;;;;;;5073851;28;20046;-50
2022/09/25 11:44:42;;;;;;;4.28;1.80;;;;;;;;;;5073388;28;20083;-49
2022/09/25 11:47:10;;;;;;;4.38;1.70;;;;;;;;;;5072925;28;20192;-46
2022/09/25 11:49:37;;;;;;;3.50;1.70;;;;;;;;;;5073157;28;20035;-58
2022/09/25 11:52:18;;;;;;;4.88;2.00;;;;;;;;;;5073744;28;20292;-57
2022/09/25 11:54:59;;;;;;;4.70;1.63;;;;;;;;;;5074112;28;20742;-47
2022/09/25 11:57:30;;;;;;;3.47;1.70;;;;;;;;;;5073542;28;20028;-45
2022/09/25 12:00:04;;;;;;;5.03;2.15;;;;;;;;;;5072096;28;20042;-50
2022/09/25 12:02:29;;;;;;;5.72;1.60;;;;;;;;;;5071101;28;20024;-48
2022/09/25 12:05:05;;;;;;;3.87;1.53;;;;;;;;;;5072296;28;20185;-50
2022/09/25 12:07:39;;;;;;;4.05;1.67;;;;;;;;;;5072846;28;20483;-51
2022/09/25 12:10:11;;;;;;;5.18;1.70;;;;;;;;;;5071825;28;20036;-51
2022/09/25 12:12:44;;;;;;;5.03;1.50;;;;;;;;;;5071009;28;20537;-58
2022/09/25 12:15:09;;;;;;;4.35;1.42;;;;;;;;;;5054972;28;20030;-58
2022/09/25 12:17:40;;;;;;;1.80;1.20;;;;;;;;;;5073531;28;20597;-58
2022/09/25 12:20:23;;;;;;;3.38;1.50;;;;;;;;;;5072444;28;20488;-58
2022/09/25 12:22:52;;;;;;;5.40;1.70;;;;;;;;;;5073914;28;20024;-58
2022/09/25 12:25:20;;;;;;;3.30;1.20;;;;;;;;;;5076769;28;20036;-57
2022/09/25 12:27:57;;;;;;;3.47;1.45;;;;;;;;;;5077102;28;20015;-58
2022/09/25 12:30:25;;;;;;;3.67;1.17;;;;;;;;;;5077026;28;20023;-58
2022/09/25 12:33:09;;;;;;;2.25;1.20;;;;;;;;;;5076544;28;20028;-57
2022/09/25 12:35:34;;;;;;;3.45;1.33;;;;;;;;;;5077047;28;20103;-57
2022/09/25 12:38:18;;;;;;;3.20;1.00;;;;;;;;;;5076605;28;21877;-58
2022/09/25 12:40:44;;;;;;;3.15;1.30;;;;;;;;;;5077322;28;20506;-57
2022/09/25 12:43:12;;;;;;;2.92;1.00;;;;;;;;;;5077177;28;20016;-57
2022/09/25 12:45:50;;;;;;;3.47;1.00;;;;;;;;;;5076564;28;20798;-57
2022/09/25 12:48:18;;;;;;;3.45;1.08;;;;;;;;;;5059365;28;20046;-57
2022/09/25 12:50:50;;;;;;;1.50;1.23;;;;;;;;;;5076939;28;20221;-57
2022/09/25 12:53:21;;;;;;;2.22;1.02;;;;;;;;;;5078609;28;20581;-58
2022/09/25 12:56:13;;;;;;;2.42;1.10;;;;;;;;;;5075747;28;20019;-57
2022/09/25 12:58:44;;;;;;;2.22;0.98;;;;;;;;;;5072690;28;20047;-48
2022/09/25 13:01:12;;;;;;;4.13;1.52;;;;;;;;;;5079377;28;20076;-58
2022/09/25 13:03:45;;;;;;;2.33;1.00;;;;;;;;;;5081716;28;20024;-58
2022/09/25 13:06:20;;;;;;;2.05;0.90;;;;;;;;;;5078216;28;20047;-59
2022/09/25 13:08:51;;;;;;;2.10;0.90;;;;;;;;;;5076342;28;20049;-51
2022/09/25 13:11:17;;;;;;;;;;;;;;;;;;5076407;28;20366;-51
2022/09/25 13:13:46;;;;;;;1.77;0.90;;;;;;;;;;5075649;28;19976;-51
2022/09/25 13:16:14;;;;;;;1.88;0.90;;;;;;;;;;5057330;28;20139;-51
2022/09/25 13:18:46;;;;;;;2.30;1.10;;;;;;;;;;5075772;28;20042;-51
2022/09/25 13:21:44;;;;;;;2.45;1.02;;;;;;;;;;5074487;28;20028;-50
2022/09/25 13:24:12;;;;;;;1.55;0.77;;;;;;;;;;5066511;28;20072;-58
2022/09/25 13:26:43;;;;;;;1.40;0.90;;;;;;;;;;5079274;27;20023;-57
2022/09/25 13:29:27;;;;;;;2.42;0.88;;;;;;;;;;5078335;28;20141;-57
2022/09/25 13:32:11;;;;;;;1.85;0.90;;;;;;;;;;5076744;28;20046;-56
2022/09/25 13:34:37;;;;;;;3.20;1.10;;;;;;;;;;5074922;28;20028;-50
2022/09/25 13:37:04;;;;;;;1.67;0.98;;;;;;;;;;5088509;27;20023;-48
2022/09/25 13:42:42;;;;;;;3.03;1.00;;;;;;;;;;5075604;28;20418;-51
2022/09/25 13:45:26;;;;;;;2.88;0.90;;;;;;;;;;5071325;28;20081;-51
2022/09/25 13:47:53;;;;;;;3.30;0.88;;;;;;;;;;5074436;28;20082;-52
2022/09/25 13:50:23;;;;;;;0.73;0.70;;;;;;;;;;5075141;28;20020;-51
2022/09/25 13:53:15;;;;;;;2.35;1.00;;;;;;;;;;5074951;28;20488;-52
2022/09/25 13:55:38;;;;;;;1.13;0.60;;;;;;;;;;5076276;28;20035;-58
2022/09/25 13:58:14;;;;;;;1.93;0.67;;;;;;;;;;5075655;27;20404;-57
2022/09/25 14:00:45;;;;;;;1.38;0.60;;;;;;;;;;5075020;28;20024;-52
2022/09/25 14:03:30;;;;;;;2.33;1.15;;;;;;;;;;5077331;28;20476;-57
2022/09/25 14:05:56;;;;;;;1.35;0.77;;;;;;;;;;5077425;28;20043;-59
2022/09/25 14:08:22;;;;;;;1.13;0.85;;;;;;;;;;5076116;28;20020;-58
2022/09/25 14:10:49;;;;;;;1.90;0.80;;;;;;;;;;5077434;28;20034;-59
2022/09/25 14:13:15;;;;;;;2.10;0.90;;;;;;;;;;5072098;27;20023;-51
2022/09/25 14:15:41;;;;;;;2.92;0.80;;;;;;;;;;5074324;28;20380;-52
2022/09/25 14:18:08;;;;;;;2.30;0.82;;;;;;;;;;5054957;28;20035;-49
2022/09/25 14:20:36;;;;;;;2.72;1.00;;;;;;;;;;5072788;28;20138;-58
2022/09/25 14:23:22;;;;;;;1.67;0.75;;;;;;;;;;5075262;28;20136;-52
2022/09/25 14:25:55;;;;;;;1.45;0.90;;;;;;;;;;5074405;27;20031;-58
2022/09/25 14:28:22;;;;;;;3.22;1.05;;;;;;;;;;5078555;28;20661;-59
2022/09/25 14:31:06;;;;;;;1.60;0.75;;;;;;;;;;5075485;28;20359;-52
2022/09/25 14:33:48;;;;;;;2.50;1.15;;;;;;;;;;5072547;27;20154;-54
2022/09/25 14:36:13;;;;;;;;;;;;;;;;;;5054926;28;20054;-50
2022/09/25 14:38:58;;;;;;;3.28;1.02;;;;;;;;;;5073354;28;19947;-48
2022/09/25 14:41:42;;;;;;;5.25;1.08;;;;;;;;;;5071587;28;21053;-50
2022/09/25 14:44:26;;;;;;;2.13;0.90;;;;;;;;;;5073963;28;20111;-50
2022/09/25 14:46:53;;;;;;;1.65;0.88;;;;;;;;;;5072567;28;20775;-52
2022/09/25 14:49:33;;;;;;;3.17;0.90;;;;;;;;;;5074947;28;20016;-49
2022/09/25 14:52:03;;;;;;;1.80;0.90;;;;;;;;;;5055592;28;20515;-57
2022/09/25 14:54:31;;;;;;;3.33;1.00;;;;;;;;;;5073314;28;20225;-58
2022/09/25 14:56:57;;;;;;;2.63;1.00;;;;;;;;;;5076155;27;20406;-55
2022/09/25 14:59:30;;;;;;;2.60;1.15;;;;;;;;;;5074531;28;20787;-57
2022/09/25 15:01:56;;;;;;;2.50;0.80;;;;;;;;;;5074749;28;20035;-57
2022/09/25 15:04:40;;;;;;;2.72;0.82;;;;;;;;;;5077500;28;20032;-48
2022/09/25 15:07:05;;;;;;;2.38;0.95;;;;;;;;;;5073393;28;20034;-48
2022/09/25 15:09:45;;;;;;;3.40;1.43;;;;;;;;;;5073055;28;20032;-49
2022/09/25 15:12:24;;;;;;;1.73;0.98;;;;;;;;;;5072801;28;20761;-58
2022/09/25 15:15:06;;;;;;;2.70;1.00;;;;;;;;;;5056542;28;20512;-51
2022/09/25 15:17:32;;;;;;;3.40;0.70;;;;;;;;;;5071441;28;20032;-57